LSGGDTMB

Guest
Details From LSGG - Geneva
To DTMB - Monastir Habib Bourguiba Intl
Flight Number -
Tags Generated
Created
Modified
Stats Distance 664 nm / 1,230 km
Max Altitude 0 ft / 0 m
Waypoints 5
Social Downloads 4
Likes 0
Share VATSIM

Download

Looking for another format? Having issues loading an existing format? Contact us
Advertisement - Login to hide

Notes

Generated

Route

LSGG MERLU CAR MON DTMB

ID Type Via Altitude Latitude Longitude Leg Dist Tot Dist Heading (true) Name
O LSGG APT - 0 ft / 0 m 46.23482˚ 6.09953˚ - 0 nm - -
MERLU FIX - 0 ft / 0 m 43.08000˚ 7.79333˚ 202 nm 202 nm 158° / 160° -
CAR VOR - 0 ft / 0 m 39.11139˚ 9.50806˚ 250 nm 453 nm 161° / 163° CARBONARA VOR-DME
MON VOR - 0 ft / 0 m 35.75492˚ 10.74806˚ 210 nm 663 nm 163° / 164° MONASTIR VOR-DME
O DTMB APT - 0 ft / 0 m 35.75411˚ 10.73844˚ 0 nm 663 nm 264° / 264° -

Altitude Profile

Advertisement - Login to hide

Weather


0- 5 10 15 20 25 30 35+ Temperature / ° C

Clouds and Precipitation
Forecast for 2017-12-12 06:00 UTC. Updated 2 hours ago

Ground ~20,000 ft ~40,000 ft Winds

LSGG

Details ICAO LSGG (GVA)
Name Geneva
Region Switzerland
Timezone Europe/Zurich (UTC+1.0)
Stats Elevation 1,410 ft / 430 m (AMSL)
Location 46.237755° 6.106173°
Runways 2
Magnetic Variation 1.736° E

METAR

LSGG 120450Z 25005KT 9999 VCSH FEW030 BKN060 03/01 Q1005 NOSIG

Decode

TAF

TAF LSGG 120225Z 1203/1309 VRB03KT 9999 FEW010 BKN030 TX06/1215Z TN03/1206Z TNM04/1306Z PROB30 TEMPO 1208/1214 25010KT 4000 SHRASN BKN010 BECMG 1218/1221 CAVOK

Decode

Departure Runways

ID Width Length Bearing (true) Bearing (mag) Surface Threshold Offset Overrun Length
05 180 ft / 55 m 12,796 ft / 3,900 m 45.43° 43.69° Concrete 1,079 ft / 329 m 66 ft / 20 m
05L 98 ft / 30 m 2,701 ft / 823 m 45.44° 43.70° Grass 610 ft / 186 m 0 ft / 0 m
23 180 ft / 55 m 12,796 ft / 3,900 m 225.45° 223.71° Concrete 0 ft / 0 m 66 ft / 20 m
23R 98 ft / 30 m 2,701 ft / 823 m 225.45° 223.71° Grass 997 ft / 304 m 0 ft / 0 m

DTMB

Details ICAO DTMB (MIR)
Name Monastir Habib Bourguiba Intl
Region Tunisia
Timezone Africa/Tunis (UTC+1.0)
Stats Elevation 9 ft / 3 m (AMSL)
Location 35.757843° 10.754025°
Runways 1
Magnetic Variation 2.432° E

METAR

DTMB 120500Z 17008KT 8000 NSC 11/03 Q1015

Decode

TAF

TAF DTMB 120009Z 1200/1224 16012KT 8000 NSC= TAF DTTA 120009Z 1200/1224 17010KT 9999 FEW026

Decode

Destination Runways

ID Width Length Bearing (true) Bearing (mag) Surface Threshold Offset Overrun Length
07 148 ft / 45 m 9,627 ft / 2,934 m 73.54° 71.11° Asphalt 0 ft / 0 m 164 ft / 50 m
25 148 ft / 45 m 9,627 ft / 2,934 m 253.56° 251.13° Asphalt 0 ft / 0 m 164 ft / 50 m

Approach Navaids

Runway Type Ident Frequency Range Bearing (true) Bearing (mag) Slope Elevation
07 Localiser MIS 109.90 MHz 18 nm / 33 km 73.57° 71.14° - 9 ft / 3 m (AMSL)
07 Glidescope MIS 109.90 MHz 10 nm / 19 km 73.55° 71.12° 3.00° 9 ft / 3 m (AMSL)